Terminal Aerodrome Forecast
Issued by NWS

Home | Current Version | Previous Version | Text Only | Print | Product List | Glossary On
Versions: 1 2 3 4 5 6 7 8 9 10 11 12 13 14
000
FTUS46 KPDT 042320
TAFDLS
TAF
KDLS 042320Z 0500/0524 31012G18KT P6SM VCSH BKN100
     FM050800 30010KT P6SM -RA SCT040 OVC070
     FM051600 31012G20KT P6SM SCT050 SCT100
     FM051900 31015G25KT P6SM FEW100=

USA.gov is the U.S. government's official web portal to all federal, state and local government web resources and services.